createdAt,value
2023-03-31T00:01:06.368Z,99624.16
2023-03-31T00:03:37.873Z,99625.05
2023-03-31T00:06:06.716Z,99624.58
2023-03-31T00:08:36.673Z,99626.52
2023-03-31T00:11:04.257Z,99628.69
2023-03-31T00:13:32.781Z,99629.81
2023-03-31T00:16:04.747Z,99629.93
2023-03-31T00:18:31.785Z,99629.16
2023-03-31T00:21:24.098Z,99628.20
2023-03-31T00:23:52.830Z,99627.00
2023-03-31T00:26:29.375Z,99624.20
2023-03-31T00:28:57.477Z,99620.90
2023-03-31T00:31:24.396Z,99618.24
2023-03-31T00:33:51.542Z,99617.52
2023-03-31T00:36:20.710Z,99617.36
2023-03-31T00:38:48.172Z,99612.30
2023-03-31T00:41:15.292Z,99606.80
2023-03-31T00:44:13.429Z,99610.66
2023-03-31T00:47:07.263Z,99611.64
2023-03-31T00:49:35.626Z,99609.89
2023-03-31T00:52:12.829Z,99603.20
2023-03-31T00:54:40.168Z,99600.00
2023-03-31T00:57:07.123Z,99594.86
2023-03-31T00:59:39.016Z,99592.73
2023-03-31T01:02:05.798Z,99589.08
2023-03-31T01:04:35.763Z,99583.17
2023-03-31T01:07:11.774Z,99588.17
2023-03-31T01:09:38.438Z,99584.60
2023-03-31T01:12:08.100Z,99581.14
2023-03-31T01:14:34.903Z,99579.48
2023-03-31T01:17:02.222Z,99575.29
2023-03-31T01:19:58.708Z,99572.37
2023-03-31T01:22:37.253Z,99573.52
2023-03-31T01:25:12.901Z,99563.98
2023-03-31T01:27:46.322Z,99562.81
2023-03-31T01:30:36.275Z,99561.27
2023-03-31T01:33:22.587Z,99563.40
2023-03-31T01:36:18.396Z,99554.09
2023-03-31T01:38:56.667Z,99554.04
2023-03-31T01:41:27.495Z,99550.88
2023-03-31T01:44:16.825Z,99547.91
2023-03-31T01:47:17.465Z,99546.87
2023-03-31T01:49:57.454Z,99544.77
2023-03-31T01:52:27.879Z,99541.58
2023-03-31T01:55:03.780Z,99547.41
2023-03-31T01:57:31.757Z,99547.61
2023-03-31T02:00:08.846Z,99546.80
2023-03-31T02:03:16.323Z,99548.46
2023-03-31T02:05:46.455Z,99542.73
2023-03-31T02:08:16.254Z,99531.85
2023-03-31T02:10:43.862Z,99528.73
2023-03-31T02:13:12.617Z,99521.96
2023-03-31T02:15:45.716Z,99519.17
2023-03-31T02:18:16.548Z,99517.95
2023-03-31T02:20:45.560Z,99516.26
2023-03-31T02:23:13.312Z,99504.85
2023-03-31T02:25:45.692Z,99497.66
2023-03-31T02:28:16.081Z,99497.30
2023-03-31T02:30:51.268Z,99488.10
2023-03-31T02:33:20.635Z,99483.21
2023-03-31T02:35:48.742Z,99475.11
2023-03-31T02:38:15.478Z,99469.77
2023-03-31T02:40:43.490Z,99475.85
2023-03-31T02:43:10.512Z,99475.34
2023-03-31T02:45:46.707Z,99472.46
2023-03-31T02:48:19.824Z,99464.67
2023-03-31T02:51:13.608Z,99466.41
2023-03-31T02:54:12.197Z,99467.86
2023-03-31T02:56:56.035Z,99467.85
2023-03-31T02:59:34.866Z,99465.19
2023-03-31T03:02:20.121Z,99468.41
2023-03-31T03:05:25.496Z,99467.46
2023-03-31T03:08:35.252Z,99472.43
2023-03-31T03:11:12.000Z,99472.73
2023-03-31T03:13:45.180Z,99466.27
2023-03-31T03:16:18.416Z,99465.50
2023-03-31T03:18:59.705Z,99471.39
2023-03-31T03:21:31.717Z,99467.80
2023-03-31T03:23:59.074Z,99471.31
2023-03-31T03:26:27.898Z,99473.77
2023-03-31T03:28:54.952Z,99469.23
2023-03-31T03:31:23.132Z,99459.09
2023-03-31T03:33:50.584Z,99455.83
2023-03-31T03:36:17.373Z,99448.10
2023-03-31T03:38:44.020Z,99444.95
2023-03-31T03:41:11.382Z,99446.97
2023-03-31T03:43:38.028Z,99450.39
2023-03-31T03:46:04.931Z,99454.50
2023-03-31T03:48:37.149Z,99446.96
2023-03-31T03:51:04.173Z,99444.47
2023-03-31T03:53:30.823Z,99439.77
2023-03-31T03:56:00.942Z,99439.16
2023-03-31T03:58:27.641Z,99435.01
2023-03-31T04:00:56.259Z,99438.80
2023-03-31T04:03:24.016Z,99433.95
2023-03-31T04:05:51.351Z,99428.38
2023-03-31T04:08:18.348Z,99432.03
2023-03-31T04:10:48.572Z,99429.64
2023-03-31T04:13:17.939Z,99430.30
2023-03-31T04:15:44.907Z,99432.54
2023-03-31T04:18:22.079Z,99431.80
2023-03-31T04:21:03.348Z,99433.04
2023-03-31T04:23:42.075Z,99430.72
2023-03-31T04:26:09.326Z,99429.76
2023-03-31T04:28:36.888Z,99426.83
2023-03-31T04:31:05.551Z,99428.58
2023-03-31T04:33:38.721Z,99423.80
2023-03-31T04:36:17.173Z,99415.73
2023-03-31T04:38:46.137Z,99410.63
2023-03-31T04:41:17.169Z,99407.03
2023-03-31T04:43:45.621Z,99398.55
2023-03-31T04:46:12.292Z,99397.91
2023-03-31T04:48:40.032Z,99396.59
2023-03-31T04:51:06.907Z,99399.91
2023-03-31T04:53:37.174Z,99397.48
2023-03-31T04:56:05.323Z,99392.39
2023-03-31T04:58:32.084Z,99391.52
2023-03-31T05:01:02.343Z,99390.48
2023-03-31T05:03:30.551Z,99390.05
2023-03-31T05:05:58.338Z,99387.05
2023-03-31T05:08:26.415Z,99385.34
2023-03-31T05:10:55.302Z,99383.63
2023-03-31T05:13:23.175Z,99382.44
2023-03-31T05:15:51.099Z,99374.45
2023-03-31T05:18:20.297Z,99375.10
2023-03-31T05:20:47.260Z,99375.43
2023-03-31T05:23:13.967Z,99375.25
2023-03-31T05:25:41.678Z,99368.34
2023-03-31T05:28:09.446Z,99363.99
2023-03-31T05:30:37.780Z,99360.88
2023-03-31T05:33:04.518Z,99353.11
2023-03-31T05:35:31.676Z,99354.83
2023-03-31T05:37:58.433Z,99351.70
2023-03-31T05:40:25.406Z,99347.58
2023-03-31T05:42:52.278Z,99344.63
2023-03-31T05:45:18.899Z,99342.02
2023-03-31T05:47:46.673Z,99332.64
2023-03-31T05:50:14.780Z,99325.25
2023-03-31T05:52:42.178Z,99321.95
2023-03-31T05:55:09.802Z,99316.17
2023-03-31T05:57:38.108Z,99307.20
2023-03-31T06:00:06.118Z,99302.14
2023-03-31T06:02:34.253Z,99306.19
2023-03-31T06:05:01.430Z,99314.02
2023-03-31T06:07:29.265Z,99315.07
2023-03-31T06:09:56.680Z,99306.29
2023-03-31T06:12:23.903Z,99299.90
2023-03-31T06:14:50.525Z,99288.85
2023-03-31T06:17:17.649Z,99285.79
2023-03-31T06:19:45.639Z,99288.86
2023-03-31T06:22:12.664Z,99287.29
2023-03-31T06:24:39.643Z,99282.95
2023-03-31T06:27:06.779Z,99280.93
2023-03-31T06:29:33.868Z,99284.20
2023-03-31T06:32:00.723Z,99280.30
2023-03-31T06:34:27.339Z,99282.42
2023-03-31T06:36:54.013Z,99275.20
2023-03-31T06:39:21.237Z,99273.41
2023-03-31T06:41:48.059Z,99267.51
2023-03-31T06:44:22.385Z,99266.89
2023-03-31T06:46:48.957Z,99264.77
2023-03-31T06:49:15.694Z,99271.39
2023-03-31T06:51:44.035Z,99272.56
2023-03-31T06:54:10.720Z,99273.84
2023-03-31T06:56:38.852Z,99276.19
2023-03-31T06:59:06.105Z,99280.05
2023-03-31T07:01:36.766Z,99279.98
2023-03-31T07:04:05.838Z,99273.62
2023-03-31T07:06:32.599Z,99266.54
2023-03-31T07:08:59.167Z,99267.34
2023-03-31T07:11:28.073Z,99265.72
2023-03-31T07:13:56.867Z,99262.52
2023-03-31T07:16:23.687Z,99261.01
2023-03-31T07:18:54.233Z,99258.39
2023-03-31T07:21:21.046Z,99252.67
2023-03-31T07:23:47.829Z,99253.58
2023-03-31T07:26:17.341Z,99248.75
2023-03-31T07:28:45.179Z,99239.98
2023-03-31T07:31:21.277Z,99235.41
2023-03-31T07:33:48.283Z,99238.15
2023-03-31T07:36:15.027Z,99234.30
2023-03-31T07:38:46.050Z,99235.08
2023-03-31T07:41:13.149Z,99230.61
2023-03-31T07:43:40.309Z,99227.57
2023-03-31T07:46:07.873Z,99230.83
2023-03-31T07:48:34.785Z,99224.98
2023-03-31T07:51:01.335Z,99219.93
2023-03-31T07:53:31.979Z,99219.42
2023-03-31T07:55:58.703Z,99218.79
2023-03-31T07:58:26.586Z,99215.17
2023-03-31T08:00:53.339Z,99210.29
2023-03-31T08:03:22.121Z,99210.41
2023-03-31T08:05:52.814Z,99210.66
2023-03-31T08:08:20.477Z,99204.11
2023-03-31T08:10:47.843Z,99203.98
2023-03-31T08:13:15.429Z,99195.67
2023-03-31T08:15:42.270Z,99194.88
2023-03-31T08:18:08.812Z,99191.45
2023-03-31T08:20:38.682Z,99184.77
2023-03-31T08:23:08.405Z,99185.88
2023-03-31T08:25:37.713Z,99178.27
2023-03-31T08:28:04.254Z,99177.83
2023-03-31T08:30:31.380Z,99174.48
2023-03-31T08:32:58.665Z,99169.48
2023-03-31T08:35:25.975Z,99173.83
2023-03-31T08:37:52.752Z,99169.27
2023-03-31T08:40:21.541Z,99171.86
2023-03-31T08:42:50.328Z,99165.69
2023-03-31T08:45:30.418Z,99166.58
2023-03-31T08:48:16.290Z,99165.85
2023-03-31T08:50:47.589Z,99161.70
2023-03-31T08:53:20.318Z,99159.02
2023-03-31T08:55:51.763Z,99150.82
2023-03-31T08:58:27.878Z,99147.50
2023-03-31T09:01:16.559Z,99145.59
2023-03-31T09:04:12.531Z,99141.95
2023-03-31T09:06:42.909Z,99138.75
2023-03-31T09:09:21.833Z,99139.31
2023-03-31T09:11:54.360Z,99135.59
2023-03-31T09:14:27.232Z,99136.73
2023-03-31T09:17:17.762Z,99133.27
2023-03-31T09:19:53.398Z,99130.32
2023-03-31T09:22:23.050Z,99131.60
2023-03-31T09:25:11.320Z,99135.00
2023-03-31T09:27:47.418Z,99133.28
2023-03-31T09:30:22.794Z,99129.37
2023-03-31T09:32:52.982Z,99120.96
2023-03-31T09:35:25.013Z,99108.29
2023-03-31T09:37:52.062Z,99098.27
2023-03-31T09:40:20.857Z,99102.39
2023-03-31T09:42:48.970Z,99102.26
2023-03-31T09:45:16.760Z,99098.45
2023-03-31T09:47:46.791Z,99094.89
2023-03-31T09:50:14.663Z,99099.51
2023-03-31T09:52:50.806Z,99099.09
2023-03-31T09:55:41.705Z,99093.34
2023-03-31T09:58:12.883Z,99092.83
2023-03-31T10:00:41.295Z,99084.25
2023-03-31T10:03:12.490Z,99079.86
2023-03-31T10:05:50.288Z,99077.02
2023-03-31T10:08:26.633Z,99073.28
2023-03-31T10:11:02.476Z,99065.30
2023-03-31T10:14:12.721Z,99068.53
2023-03-31T10:16:46.550Z,99067.30
2023-03-31T10:19:27.125Z,99066.17
2023-03-31T10:21:57.642Z,99056.84
2023-03-31T10:24:25.862Z,99058.46
2023-03-31T10:26:58.080Z,99054.77
2023-03-31T10:29:32.217Z,99053.80
2023-03-31T10:32:03.979Z,99054.67
2023-03-31T10:34:30.706Z,99047.73
2023-03-31T10:36:59.371Z,99048.20
2023-03-31T10:39:29.405Z,99045.05
2023-03-31T10:41:56.332Z,99048.08
2023-03-31T10:44:34.178Z,99041.54
2023-03-31T10:47:14.849Z,99041.30
2023-03-31T10:49:42.870Z,99032.22
2023-03-31T10:52:21.767Z,99031.61
2023-03-31T10:54:51.099Z,99027.94
2023-03-31T10:57:18.199Z,99025.32
2023-03-31T10:59:52.088Z,99026.64
2023-03-31T11:02:19.110Z,99026.00
2023-03-31T11:04:58.261Z,99023.36
2023-03-31T11:07:33.522Z,99021.46
2023-03-31T11:10:34.277Z,99020.65
2023-03-31T11:13:20.740Z,99015.01
2023-03-31T11:16:00.382Z,99012.42
2023-03-31T11:18:47.872Z,99007.27
2023-03-31T11:21:19.666Z,99006.83
2023-03-31T11:26:00.456Z,99006.78
2023-03-31T11:28:33.299Z,98999.91
2023-03-31T11:31:13.867Z,98997.68
2023-03-31T11:34:04.798Z,98993.60
2023-03-31T11:37:11.895Z,98996.02
2023-03-31T11:40:18.794Z,98993.45
2023-03-31T11:43:11.292Z,98988.79
2023-03-31T11:45:49.988Z,98985.57
2023-03-31T11:48:58.105Z,98981.30
2023-03-31T11:51:32.420Z,98979.70
2023-03-31T11:54:00.796Z,98973.09
2023-03-31T11:56:35.978Z,98970.88
2023-03-31T11:59:24.042Z,98965.36
2023-03-31T12:02:26.870Z,98959.16
2023-03-31T12:04:56.478Z,98956.65
2023-03-31T12:07:41.125Z,98953.10
2023-03-31T12:10:22.748Z,98946.77
2023-03-31T12:13:16.783Z,98947.32
2023-03-31T12:15:46.589Z,98942.78
2023-03-31T12:18:23.045Z,98938.85
2023-03-31T12:21:00.695Z,98940.38
2023-03-31T12:23:31.320Z,98938.58
2023-03-31T12:26:11.906Z,98938.19
2023-03-31T12:28:40.786Z,98928.38
2023-03-31T12:31:11.634Z,98925.67
2023-03-31T12:33:42.031Z,98922.64
2023-03-31T12:36:27.068Z,98918.00
2023-03-31T12:38:58.210Z,98912.17
2023-03-31T12:41:55.346Z,98906.38
2023-03-31T12:44:49.618Z,98906.59
2023-03-31T12:47:25.575Z,98903.41
2023-03-31T12:50:31.747Z,98896.91
2023-03-31T12:53:00.299Z,98896.00
2023-03-31T12:55:45.536Z,98888.86
2023-03-31T12:58:23.191Z,98895.67
2023-03-31T13:01:17.166Z,98897.34
2023-03-31T13:04:07.179Z,98893.30
2023-03-31T13:06:41.847Z,98893.08
2023-03-31T13:09:13.213Z,98890.68
2023-03-31T13:11:43.228Z,98886.21
2023-03-31T13:14:22.134Z,98878.98
2023-03-31T13:17:11.177Z,98876.66
2023-03-31T13:19:40.855Z,98875.34
2023-03-31T13:22:33.998Z,98869.73
2023-03-31T13:25:31.429Z,98867.94
2023-03-31T13:28:15.068Z,98860.45
2023-03-31T13:30:47.005Z,98859.92
2023-03-31T13:33:21.163Z,98854.88
2023-03-31T13:36:20.166Z,98856.87
2023-03-31T13:39:04.393Z,98848.88
2023-03-31T13:41:43.270Z,98845.70
2023-03-31T13:44:51.576Z,98841.48
2023-03-31T13:47:48.721Z,98844.52
2023-03-31T13:50:32.232Z,98842.30
2023-03-31T13:53:03.885Z,98843.73
2023-03-31T13:55:39.421Z,98844.04
2023-03-31T13:58:44.035Z,98843.19
2023-03-31T14:01:18.650Z,98842.59
2023-03-31T14:04:17.976Z,98840.59
2023-03-31T14:06:52.704Z,98839.20
2023-03-31T14:09:36.139Z,98836.27
2023-03-31T14:12:30.311Z,98834.57
2023-03-31T14:14:58.378Z,98836.17
2023-03-31T14:17:45.025Z,98829.35
2023-03-31T14:20:45.785Z,98828.30
2023-03-31T14:23:26.155Z,98833.14
2023-03-31T14:26:18.184Z,98834.23
2023-03-31T14:29:12.812Z,98836.14
2023-03-31T14:31:59.304Z,98839.30
2023-03-31T14:34:27.413Z,98837.52
2023-03-31T14:37:15.521Z,98837.30
2023-03-31T14:39:46.998Z,98838.80
2023-03-31T14:42:16.999Z,98831.46
2023-03-31T14:44:47.167Z,98834.49
2023-03-31T14:47:21.347Z,98835.66
2023-03-31T14:49:59.882Z,98832.55
2023-03-31T14:52:30.456Z,98831.23
2023-03-31T14:55:00.791Z,98829.70
2023-03-31T14:57:33.709Z,98828.08
2023-03-31T15:00:06.188Z,98829.73
2023-03-31T15:02:37.516Z,98834.55
2023-03-31T15:05:09.878Z,98832.02
2023-03-31T15:07:38.637Z,98837.84
2023-03-31T15:10:07.769Z,98840.48
2023-03-31T15:12:38.488Z,98839.70
2023-03-31T15:15:08.770Z,98842.35
2023-03-31T15:17:39.608Z,98842.06
2023-03-31T15:20:36.424Z,98842.08
2023-03-31T15:23:28.238Z,98838.11
2023-03-31T15:25:57.971Z,98840.08
2023-03-31T15:28:27.849Z,98842.30
2023-03-31T15:31:07.258Z,98841.40
2023-03-31T15:33:45.521Z,98847.08
2023-03-31T15:36:13.838Z,98847.67
2023-03-31T15:38:42.858Z,98852.20
2023-03-31T15:41:15.631Z,98857.36
2023-03-31T15:43:47.732Z,98850.11
2023-03-31T15:46:20.970Z,98848.33
2023-03-31T15:48:53.596Z,98853.90
2023-03-31T15:51:30.372Z,98857.35
2023-03-31T15:54:00.972Z,98855.40
2023-03-31T15:56:36.442Z,98848.20
2023-03-31T15:59:05.877Z,98847.76
2023-03-31T16:01:43.282Z,98847.91
2023-03-31T16:04:13.568Z,98847.10
2023-03-31T16:06:46.591Z,98855.60
2023-03-31T16:09:23.314Z,98853.88
2023-03-31T16:11:56.636Z,98848.84
2023-03-31T16:14:36.148Z,98849.89
2023-03-31T16:17:10.652Z,98847.42
2023-03-31T16:19:41.850Z,98845.94
2023-03-31T16:22:13.971Z,98845.65
2023-03-31T16:24:42.415Z,98852.45
2023-03-31T16:27:10.350Z,98850.78
2023-03-31T16:29:39.081Z,98856.56
2023-03-31T16:32:08.448Z,98854.77
2023-03-31T16:34:58.687Z,98852.09
2023-03-31T16:37:27.028Z,98855.82
2023-03-31T16:39:56.744Z,98853.59
2023-03-31T16:42:24.958Z,98855.43
2023-03-31T16:47:34.751Z,98852.98
2023-03-31T16:50:07.710Z,98852.37
2023-03-31T16:52:36.998Z,98853.59
2023-03-31T16:55:05.515Z,98848.24
2023-03-31T16:57:35.090Z,98854.85
2023-03-31T17:00:03.923Z,98852.25
2023-03-31T17:02:36.171Z,98854.03
2023-03-31T17:05:12.504Z,98857.85
2023-03-31T17:07:41.532Z,98857.21
2023-03-31T17:10:12.986Z,98861.00
2023-03-31T17:12:41.776Z,98860.05
2023-03-31T17:15:11.141Z,98858.15
2023-03-31T17:17:41.817Z,98857.73
2023-03-31T17:20:10.957Z,98861.43
2023-03-31T17:22:39.012Z,98860.17
2023-03-31T17:25:09.560Z,98862.51
2023-03-31T17:27:37.897Z,98858.40
2023-03-31T17:30:10.078Z,98856.54
2023-03-31T17:32:39.017Z,98857.67
2023-03-31T17:35:08.030Z,98857.81
2023-03-31T17:37:37.470Z,98857.55
2023-03-31T17:40:07.283Z,98855.83
2023-03-31T17:42:35.325Z,98858.90
2023-03-31T17:45:05.215Z,98851.46
2023-03-31T17:47:33.301Z,98850.49
2023-03-31T17:50:01.630Z,98848.09
2023-03-31T17:52:30.138Z,98848.47
2023-03-31T17:55:04.314Z,98844.48
2023-03-31T17:57:32.656Z,98845.20
2023-03-31T18:00:10.821Z,98842.21
2023-03-31T18:02:39.837Z,98843.99
2023-03-31T18:05:09.876Z,98846.85
2023-03-31T18:07:38.868Z,98842.73
2023-03-31T18:10:07.692Z,98842.38
2023-03-31T18:12:38.093Z,98840.81
2023-03-31T18:15:07.263Z,98838.30
2023-03-31T18:17:36.622Z,98838.83
2023-03-31T18:20:18.409Z,98839.34
2023-03-31T18:22:50.381Z,98836.61
2023-03-31T18:25:20.840Z,98838.80
2023-03-31T18:27:51.428Z,98839.70
2023-03-31T18:30:20.350Z,98838.33
2023-03-31T18:32:48.801Z,98834.93
2023-03-31T18:35:20.194Z,98836.96
2023-03-31T18:37:48.514Z,98831.17
2023-03-31T18:40:20.050Z,98824.09
2023-03-31T18:42:49.263Z,98827.27
2023-03-31T18:45:17.964Z,98825.57
2023-03-31T18:47:47.986Z,98825.38
2023-03-31T18:50:16.324Z,98820.70
2023-03-31T18:52:47.769Z,98822.13
2023-03-31T18:55:18.952Z,98820.73
2023-03-31T18:57:49.719Z,98815.48
2023-03-31T19:00:20.837Z,98815.88
2023-03-31T19:02:49.803Z,98818.35
2023-03-31T19:05:18.203Z,98818.73
2023-03-31T19:07:48.280Z,98818.62
2023-03-31T19:10:17.769Z,98817.75
2023-03-31T19:12:48.654Z,98815.09
2023-03-31T19:15:19.389Z,98815.64
2023-03-31T19:17:53.004Z,98815.95
2023-03-31T19:20:22.583Z,98812.37
2023-03-31T19:22:51.213Z,98806.83
2023-03-31T19:25:20.798Z,98804.22
2023-03-31T19:27:52.245Z,98801.98
2023-03-31T19:30:22.359Z,98794.77
2023-03-31T19:32:52.476Z,98795.20
2023-03-31T19:35:22.981Z,98797.43
2023-03-31T19:37:53.352Z,98802.65
2023-03-31T19:40:24.601Z,98803.52
2023-03-31T19:42:52.782Z,98802.89
2023-03-31T19:45:21.850Z,98797.00
2023-03-31T19:47:51.088Z,98793.73
2023-03-31T19:50:19.537Z,98794.76
2023-03-31T19:52:49.798Z,98795.80
2023-03-31T19:55:18.101Z,98792.99
2023-03-31T19:57:47.462Z,98797.09
2023-03-31T20:00:18.756Z,98794.33
2023-03-31T20:03:04.912Z,98795.92
2023-03-31T20:05:34.724Z,98792.94
2023-03-31T20:08:02.805Z,98793.92
2023-03-31T20:10:36.315Z,98789.39
2023-03-31T20:13:05.183Z,98791.60
2023-03-31T20:15:37.421Z,98789.60
2023-03-31T20:18:07.273Z,98790.66
2023-03-31T20:20:36.215Z,98789.35
2023-03-31T20:23:04.735Z,98791.48
2023-03-31T20:25:33.050Z,98790.89
2023-03-31T20:28:01.978Z,98790.77
2023-03-31T20:30:30.834Z,98792.98
2023-03-31T20:32:59.290Z,98791.38
2023-03-31T20:35:28.483Z,98788.15
2023-03-31T20:37:58.664Z,98792.65
2023-03-31T20:40:26.835Z,98794.70
2023-03-31T20:42:55.544Z,98791.60
2023-03-31T20:45:24.402Z,98790.80
2023-03-31T20:47:53.164Z,98793.39
2023-03-31T20:50:23.057Z,98793.69
2023-03-31T20:52:51.329Z,98789.69
2023-03-31T20:55:19.559Z,98791.45
2023-03-31T20:57:52.918Z,98792.09
2023-03-31T21:00:22.985Z,98792.08
2023-03-31T21:02:53.219Z,98792.39
2023-03-31T21:05:23.688Z,98788.42
2023-03-31T21:07:52.822Z,98787.37
2023-03-31T21:10:22.947Z,98791.67
2023-03-31T21:12:52.811Z,98788.05
2023-03-31T21:15:20.811Z,98792.65
2023-03-31T21:17:49.065Z,98792.87
2023-03-31T21:20:17.394Z,98796.48
2023-03-31T21:22:46.165Z,98795.88
2023-03-31T21:25:14.343Z,98798.63
2023-03-31T21:27:42.348Z,98797.05
2023-03-31T21:30:11.868Z,98791.34
2023-03-31T21:32:40.265Z,98787.71
2023-03-31T21:35:09.480Z,98789.08
2023-03-31T21:37:37.450Z,98789.61
2023-03-31T21:40:07.172Z,98789.33
2023-03-31T21:42:37.736Z,98787.23
2023-03-31T21:45:06.768Z,98782.08
2023-03-31T21:47:34.928Z,98777.91
2023-03-31T21:50:04.688Z,98777.58
2023-03-31T21:52:33.490Z,98773.95
2023-03-31T21:55:01.851Z,98775.37
2023-03-31T21:57:30.576Z,98771.30
2023-03-31T21:59:59.071Z,98769.88
2023-03-31T22:02:27.025Z,98762.14
2023-03-31T22:04:55.494Z,98768.43
2023-03-31T22:07:23.550Z,98772.05
2023-03-31T22:09:51.915Z,98775.74
2023-03-31T22:12:20.726Z,98777.48
2023-03-31T22:14:49.473Z,98779.80
2023-03-31T22:17:17.661Z,98777.38
2023-03-31T22:19:45.836Z,98775.95
2023-03-31T22:22:13.842Z,98777.52
2023-03-31T22:24:42.937Z,98775.95
2023-03-31T22:27:11.387Z,98776.92
2023-03-31T22:29:40.785Z,98777.28
2023-03-31T22:32:09.059Z,98777.71
2023-03-31T22:34:37.030Z,98773.84
2023-03-31T22:37:05.700Z,98773.52
2023-03-31T22:39:34.064Z,98767.23
2023-03-31T22:42:02.263Z,98765.59
2023-03-31T22:44:31.563Z,98768.40
2023-03-31T22:46:59.606Z,98770.86
2023-03-31T22:49:27.811Z,98770.20
2023-03-31T22:51:56.594Z,98767.34
2023-03-31T22:54:24.635Z,98774.41
2023-03-31T22:56:53.159Z,98771.05
2023-03-31T22:59:21.273Z,98769.66
2023-03-31T23:01:53.200Z,98769.85
2023-03-31T23:04:22.419Z,98764.04
2023-03-31T23:06:50.438Z,98764.20
2023-03-31T23:09:19.574Z,98761.64
2023-03-31T23:11:48.031Z,98767.80
2023-03-31T23:14:18.079Z,98771.23
2023-03-31T23:16:46.201Z,98767.92
2023-03-31T23:19:14.601Z,98775.33
2023-03-31T23:21:44.313Z,98779.44
2023-03-31T23:24:12.428Z,98774.43
2023-03-31T23:26:43.958Z,98770.36
2023-03-31T23:29:12.966Z,98770.77
2023-03-31T23:31:41.377Z,98773.36
2023-03-31T23:34:11.531Z,98778.66
2023-03-31T23:36:40.727Z,98778.23
2023-03-31T23:39:10.785Z,98782.80
2023-03-31T23:42:54.199Z,98796.59
2023-03-31T23:45:22.896Z,98795.02
2023-03-31T23:47:49.624Z,98795.86
2023-03-31T23:50:16.813Z,98796.28
2023-03-31T23:52:45.036Z,98796.48
2023-03-31T23:55:12.589Z,98791.56
2023-03-31T23:57:39.207Z,98788.75
